sensor_id;sensor_type;location;lat;lon;timestamp;temperature;humidity
8664;DHT22;4369;47.842;13.096;2023-04-24T00:02:02;12.00;99.90
8664;DHT22;4369;47.842;13.096;2023-04-24T00:04:30;12.00;99.90
8664;DHT22;4369;47.842;13.096;2023-04-24T00:06:57;12.00;99.90
8664;DHT22;4369;47.842;13.096;2023-04-24T00:09:25;12.00;99.90
8664;DHT22;4369;47.842;13.096;2023-04-24T00:11:52;11.90;99.90
8664;DHT22;4369;47.842;13.096;2023-04-24T00:14:20;11.90;99.90
8664;DHT22;4369;47.842;13.096;2023-04-24T00:16:47;11.90;99.90
8664;DHT22;4369;47.842;13.096;2023-04-24T00:19:15;11.90;99.90
8664;DHT22;4369;47.842;13.096;2023-04-24T00:21:42;11.80;99.90
8664;DHT22;4369;47.842;13.096;2023-04-24T00:24:09;11.70;99.90
8664;DHT22;4369;47.842;13.096;2023-04-24T00:26:36;11.70;99.90
8664;DHT22;4369;47.842;13.096;2023-04-24T00:29:03;11.80;99.90
8664;DHT22;4369;47.842;13.096;2023-04-24T00:31:30;11.70;99.90
8664;DHT22;4369;47.842;13.096;2023-04-24T00:33:57;11.50;99.90
8664;DHT22;4369;47.842;13.096;2023-04-24T00:36:26;11.50;99.90
8664;DHT22;4369;47.842;13.096;2023-04-24T00:38:53;11.30;99.90
8664;DHT22;4369;47.842;13.096;2023-04-24T00:41:20;11.10;99.90
8664;DHT22;4369;47.842;13.096;2023-04-24T00:43:47;11.20;99.90
8664;DHT22;4369;47.842;13.096;2023-04-24T00:46:14;11.20;99.90
8664;DHT22;4369;47.842;13.096;2023-04-24T00:48:43;11.20;99.90
8664;DHT22;4369;47.842;13.096;2023-04-24T00:51:10;11.10;99.90
8664;DHT22;4369;47.842;13.096;2023-04-24T00:53:39;11.00;99.90
8664;DHT22;4369;47.842;13.096;2023-04-24T00:56:05;11.00;99.90
8664;DHT22;4369;47.842;13.096;2023-04-24T00:58:32;11.00;99.90
8664;DHT22;4369;47.842;13.096;2023-04-24T01:01:00;10.90;99.90
8664;DHT22;4369;47.842;13.096;2023-04-24T01:03:29;10.90;99.90
8664;DHT22;4369;47.842;13.096;2023-04-24T01:05:57;10.80;99.90
8664;DHT22;4369;47.842;13.096;2023-04-24T01:08:24;10.70;99.90
8664;DHT22;4369;47.842;13.096;2023-04-24T01:10:55;10.70;99.90
8664;DHT22;4369;47.842;13.096;2023-04-24T01:13:23;10.60;99.90
8664;DHT22;4369;47.842;13.096;2023-04-24T01:15:50;10.50;99.90
8664;DHT22;4369;47.842;13.096;2023-04-24T01:18:17;10.50;99.90
8664;DHT22;4369;47.842;13.096;2023-04-24T01:20:45;10.50;99.90
8664;DHT22;4369;47.842;13.096;2023-04-24T01:23:14;10.30;99.90
8664;DHT22;4369;47.842;13.096;2023-04-24T01:25:41;10.40;99.90
8664;DHT22;4369;47.842;13.096;2023-04-24T01:28:08;10.30;99.90
8664;DHT22;4369;47.842;13.096;2023-04-24T01:30:35;10.30;99.90
8664;DHT22;4369;47.842;13.096;2023-04-24T01:33:02;10.30;99.90
8664;DHT22;4369;47.842;13.096;2023-04-24T01:35:29;10.40;99.90
8664;DHT22;4369;47.842;13.096;2023-04-24T01:37:56;10.40;99.90
8664;DHT22;4369;47.842;13.096;2023-04-24T01:40:24;10.50;99.90
8664;DHT22;4369;47.842;13.096;2023-04-24T01:42:51;10.60;99.90
8664;DHT22;4369;47.842;13.096;2023-04-24T01:45:18;10.60;99.90
8664;DHT22;4369;47.842;13.096;2023-04-24T01:47:45;10.60;99.90
8664;DHT22;4369;47.842;13.096;2023-04-24T01:50:14;10.60;99.90
8664;DHT22;4369;47.842;13.096;2023-04-24T01:52:41;10.60;99.90
8664;DHT22;4369;47.842;13.096;2023-04-24T01:55:09;10.60;99.90
8664;DHT22;4369;47.842;13.096;2023-04-24T01:57:38;10.60;99.90
8664;DHT22;4369;47.842;13.096;2023-04-24T02:00:05;10.70;99.90
8664;DHT22;4369;47.842;13.096;2023-04-24T02:02:33;10.70;99.90
8664;DHT22;4369;47.842;13.096;2023-04-24T02:05:00;10.80;99.90
8664;DHT22;4369;47.842;13.096;2023-04-24T02:07:27;10.80;99.90
8664;DHT22;4369;47.842;13.096;2023-04-24T02:09:54;10.90;99.90
8664;DHT22;4369;47.842;13.096;2023-04-24T02:12:21;10.90;99.90
8664;DHT22;4369;47.842;13.096;2023-04-24T02:14:49;10.90;99.90
8664;DHT22;4369;47.842;13.096;2023-04-24T02:17:16;10.90;99.90
8664;DHT22;4369;47.842;13.096;2023-04-24T02:19:44;10.80;99.90
8664;DHT22;4369;47.842;13.096;2023-04-24T02:22:11;10.90;99.90
8664;DHT22;4369;47.842;13.096;2023-04-24T02:24:38;10.90;99.90
8664;DHT22;4369;47.842;13.096;2023-04-24T02:27:05;10.90;99.90
8664;DHT22;4369;47.842;13.096;2023-04-24T02:29:32;11.00;99.90
8664;DHT22;4369;47.842;13.096;2023-04-24T02:32:00;11.00;99.90
8664;DHT22;4369;47.842;13.096;2023-04-24T02:34:27;11.00;99.90
8664;DHT22;4369;47.842;13.096;2023-04-24T02:36:54;11.00;99.90
8664;DHT22;4369;47.842;13.096;2023-04-24T02:39:21;11.00;99.90
8664;DHT22;4369;47.842;13.096;2023-04-24T02:41:48;11.00;99.90
8664;DHT22;4369;47.842;13.096;2023-04-24T02:44:15;11.00;99.90
8664;DHT22;4369;47.842;13.096;2023-04-24T02:46:42;11.00;99.90
8664;DHT22;4369;47.842;13.096;2023-04-24T02:49:11;11.00;99.90
8664;DHT22;4369;47.842;13.096;2023-04-24T02:51:38;10.90;99.90
8664;DHT22;4369;47.842;13.096;2023-04-24T02:54:07;10.80;99.90
8664;DHT22;4369;47.842;13.096;2023-04-24T02:56:34;10.80;99.90
8664;DHT22;4369;47.842;13.096;2023-04-24T02:59:01;10.80;99.90
8664;DHT22;4369;47.842;13.096;2023-04-24T03:01:28;10.80;99.90
8664;DHT22;4369;47.842;13.096;2023-04-24T03:03:55;10.70;99.90
8664;DHT22;4369;47.842;13.096;2023-04-24T03:06:23;10.70;99.90
8664;DHT22;4369;47.842;13.096;2023-04-24T03:08:50;10.70;99.90
8664;DHT22;4369;47.842;13.096;2023-04-24T03:11:17;10.80;99.90
8664;DHT22;4369;47.842;13.096;2023-04-24T03:13:43;10.80;99.90
8664;DHT22;4369;47.842;13.096;2023-04-24T03:16:10;10.60;99.90
8664;DHT22;4369;47.842;13.096;2023-04-24T03:18:37;10.60;99.90
8664;DHT22;4369;47.842;13.096;2023-04-24T03:21:04;10.50;99.90
8664;DHT22;4369;47.842;13.096;2023-04-24T03:23:32;10.30;99.90
8664;DHT22;4369;47.842;13.096;2023-04-24T03:25:59;10.20;99.90
8664;DHT22;4369;47.842;13.096;2023-04-24T03:28:27;10.00;99.90
8664;DHT22;4369;47.842;13.096;2023-04-24T03:30:54;10.00;99.90
8664;DHT22;4369;47.842;13.096;2023-04-24T03:33:21;10.00;99.90
8664;DHT22;4369;47.842;13.096;2023-04-24T03:35:48;9.90;99.90
8664;DHT22;4369;47.842;13.096;2023-04-24T03:38:15;10.00;99.90
8664;DHT22;4369;47.842;13.096;2023-04-24T03:40:43;10.00;99.90
8664;DHT22;4369;47.842;13.096;2023-04-24T03:43:10;10.00;99.90
8664;DHT22;4369;47.842;13.096;2023-04-24T03:45:36;10.10;99.90
8664;DHT22;4369;47.842;13.096;2023-04-24T03:48:04;10.00;99.90
8664;DHT22;4369;47.842;13.096;2023-04-24T03:50:31;10.00;99.90
8664;DHT22;4369;47.842;13.096;2023-04-24T03:52:57;10.00;99.90
8664;DHT22;4369;47.842;13.096;2023-04-24T03:55:24;10.00;99.90
8664;DHT22;4369;47.842;13.096;2023-04-24T03:57:52;9.90;99.90
8664;DHT22;4369;47.842;13.096;2023-04-24T04:00:19;10.00;99.90
8664;DHT22;4369;47.842;13.096;2023-04-24T04:02:46;10.00;99.90
8664;DHT22;4369;47.842;13.096;2023-04-24T04:05:13;9.90;99.90
8664;DHT22;4369;47.842;13.096;2023-04-24T04:07:40;9.90;99.90
8664;DHT22;4369;47.842;13.096;2023-04-24T04:10:07;9.90;99.90
8664;DHT22;4369;47.842;13.096;2023-04-24T04:12:34;9.90;99.90
8664;DHT22;4369;47.842;13.096;2023-04-24T04:15:03;9.90;99.90
8664;DHT22;4369;47.842;13.096;2023-04-24T04:17:31;9.90;99.90
8664;DHT22;4369;47.842;13.096;2023-04-24T04:19:58;9.90;99.90
8664;DHT22;4369;47.842;13.096;2023-04-24T04:22:25;9.90;99.90
8664;DHT22;4369;47.842;13.096;2023-04-24T04:24:53;9.90;99.90
8664;DHT22;4369;47.842;13.096;2023-04-24T04:27:20;10.00;99.90
8664;DHT22;4369;47.842;13.096;2023-04-24T04:29:47;10.00;99.90
8664;DHT22;4369;47.842;13.096;2023-04-24T04:32:15;10.10;99.90
8664;DHT22;4369;47.842;13.096;2023-04-24T04:34:42;10.00;99.90
8664;DHT22;4369;47.842;13.096;2023-04-24T04:37:10;10.00;99.90
8664;DHT22;4369;47.842;13.096;2023-04-24T04:39:38;10.10;99.90
8664;DHT22;4369;47.842;13.096;2023-04-24T04:42:05;10.20;99.90
8664;DHT22;4369;47.842;13.096;2023-04-24T04:44:32;10.20;99.90
8664;DHT22;4369;47.842;13.096;2023-04-24T04:47:01;10.20;99.90
8664;DHT22;4369;47.842;13.096;2023-04-24T04:49:32;10.20;99.90
8664;DHT22;4369;47.842;13.096;2023-04-24T04:52:00;10.20;99.90
8664;DHT22;4369;47.842;13.096;2023-04-24T04:54:27;10.20;99.90
8664;DHT22;4369;47.842;13.096;2023-04-24T04:56:53;10.30;99.90
8664;DHT22;4369;47.842;13.096;2023-04-24T04:59:21;10.30;99.90
8664;DHT22;4369;47.842;13.096;2023-04-24T05:01:47;10.20;99.90
8664;DHT22;4369;47.842;13.096;2023-04-24T05:04:14;10.20;99.90
8664;DHT22;4369;47.842;13.096;2023-04-24T05:06:42;10.20;99.90
8664;DHT22;4369;47.842;13.096;2023-04-24T05:09:09;10.20;99.90
8664;DHT22;4369;47.842;13.096;2023-04-24T05:11:36;10.20;99.90
8664;DHT22;4369;47.842;13.096;2023-04-24T05:14:03;10.20;99.90
8664;DHT22;4369;47.842;13.096;2023-04-24T05:16:30;10.10;99.90
8664;DHT22;4369;47.842;13.096;2023-04-24T05:18:57;10.10;99.90
8664;DHT22;4369;47.842;13.096;2023-04-24T05:21:24;10.10;99.90
8664;DHT22;4369;47.842;13.096;2023-04-24T05:23:53;10.10;99.90
8664;DHT22;4369;47.842;13.096;2023-04-24T05:26:20;10.00;99.90
8664;DHT22;4369;47.842;13.096;2023-04-24T05:28:48;10.00;99.90
8664;DHT22;4369;47.842;13.096;2023-04-24T05:31:15;9.90;99.90
8664;DHT22;4369;47.842;13.096;2023-04-24T05:33:43;9.90;99.90
8664;DHT22;4369;47.842;13.096;2023-04-24T05:36:10;10.00;99.90
8664;DHT22;4369;47.842;13.096;2023-04-24T05:38:36;9.90;99.90
8664;DHT22;4369;47.842;13.096;2023-04-24T05:41:05;9.90;99.90
8664;DHT22;4369;47.842;13.096;2023-04-24T05:43:32;10.00;99.90
8664;DHT22;4369;47.842;13.096;2023-04-24T05:45:58;10.10;99.90
8664;DHT22;4369;47.842;13.096;2023-04-24T05:48:25;10.10;99.90
8664;DHT22;4369;47.842;13.096;2023-04-24T05:50:52;10.10;99.90
8664;DHT22;4369;47.842;13.096;2023-04-24T05:53:19;10.20;99.90
8664;DHT22;4369;47.842;13.096;2023-04-24T05:55:47;10.20;99.90
8664;DHT22;4369;47.842;13.096;2023-04-24T05:58:15;10.20;99.90
8664;DHT22;4369;47.842;13.096;2023-04-24T06:00:42;10.20;99.90
8664;DHT22;4369;47.842;13.096;2023-04-24T06:03:11;10.20;99.90
8664;DHT22;4369;47.842;13.096;2023-04-24T06:05:38;10.20;99.90
8664;DHT22;4369;47.842;13.096;2023-04-24T06:08:05;10.10;99.90
8664;DHT22;4369;47.842;13.096;2023-04-24T06:10:32;10.00;99.90
8664;DHT22;4369;47.842;13.096;2023-04-24T06:13:00;10.10;99.90
8664;DHT22;4369;47.842;13.096;2023-04-24T06:15:30;10.20;99.90
8664;DHT22;4369;47.842;13.096;2023-04-24T06:17:57;10.10;99.90
8664;DHT22;4369;47.842;13.096;2023-04-24T06:20:24;10.10;99.90
8664;DHT22;4369;47.842;13.096;2023-04-24T06:22:51;10.20;99.90
8664;DHT22;4369;47.842;13.096;2023-04-24T06:25:18;10.10;99.90
8664;DHT22;4369;47.842;13.096;2023-04-24T06:27:45;10.20;99.90
8664;DHT22;4369;47.842;13.096;2023-04-24T06:30:12;10.10;99.90
8664;DHT22;4369;47.842;13.096;2023-04-24T06:32:41;10.20;99.90
8664;DHT22;4369;47.842;13.096;2023-04-24T06:35:08;10.20;99.90
8664;DHT22;4369;47.842;13.096;2023-04-24T06:37:35;10.20;99.90
8664;DHT22;4369;47.842;13.096;2023-04-24T06:40:03;10.20;99.90
8664;DHT22;4369;47.842;13.096;2023-04-24T06:42:30;10.20;99.90
8664;DHT22;4369;47.842;13.096;2023-04-24T06:44:57;10.30;99.90
8664;DHT22;4369;47.842;13.096;2023-04-24T06:47:24;10.30;99.90
8664;DHT22;4369;47.842;13.096;2023-04-24T06:49:52;10.20;99.90
8664;DHT22;4369;47.842;13.096;2023-04-24T06:52:20;10.30;99.90
8664;DHT22;4369;47.842;13.096;2023-04-24T06:54:47;10.30;99.90
8664;DHT22;4369;47.842;13.096;2023-04-24T06:57:14;10.30;99.90
8664;DHT22;4369;47.842;13.096;2023-04-24T06:59:42;10.20;99.90
8664;DHT22;4369;47.842;13.096;2023-04-24T07:02:09;10.20;99.90
8664;DHT22;4369;47.842;13.096;2023-04-24T07:04:36;10.20;99.90
8664;DHT22;4369;47.842;13.096;2023-04-24T07:07:04;10.30;99.90
8664;DHT22;4369;47.842;13.096;2023-04-24T07:09:32;10.30;99.90
8664;DHT22;4369;47.842;13.096;2023-04-24T07:12:00;10.40;99.90
8664;DHT22;4369;47.842;13.096;2023-04-24T07:14:27;10.30;99.90
8664;DHT22;4369;47.842;13.096;2023-04-24T07:16:54;10.20;99.90
8664;DHT22;4369;47.842;13.096;2023-04-24T07:19:22;10.20;99.90
8664;DHT22;4369;47.842;13.096;2023-04-24T07:21:49;10.10;99.90
8664;DHT22;4369;47.842;13.096;2023-04-24T07:24:17;10.10;99.90
8664;DHT22;4369;47.842;13.096;2023-04-24T07:26:44;10.10;99.90
8664;DHT22;4369;47.842;13.096;2023-04-24T07:29:12;10.20;99.90
8664;DHT22;4369;47.842;13.096;2023-04-24T07:31:39;10.20;99.90
8664;DHT22;4369;47.842;13.096;2023-04-24T07:34:06;10.20;99.90
8664;DHT22;4369;47.842;13.096;2023-04-24T07:36:33;10.30;99.90
8664;DHT22;4369;47.842;13.096;2023-04-24T07:39:00;10.30;99.90
8664;DHT22;4369;47.842;13.096;2023-04-24T07:41:28;10.40;99.90
8664;DHT22;4369;47.842;13.096;2023-04-24T07:43:55;10.20;99.90
8664;DHT22;4369;47.842;13.096;2023-04-24T07:46:22;10.20;99.90
8664;DHT22;4369;47.842;13.096;2023-04-24T07:48:50;10.20;99.90
8664;DHT22;4369;47.842;13.096;2023-04-24T07:51:17;10.40;99.90
8664;DHT22;4369;47.842;13.096;2023-04-24T07:53:44;10.50;99.90
8664;DHT22;4369;47.842;13.096;2023-04-24T07:56:11;10.70;99.90
8664;DHT22;4369;47.842;13.096;2023-04-24T07:58:39;10.80;99.90
8664;DHT22;4369;47.842;13.096;2023-04-24T08:01:06;10.90;99.90
8664;DHT22;4369;47.842;13.096;2023-04-24T08:03:33;10.90;99.90
8664;DHT22;4369;47.842;13.096;2023-04-24T08:06:00;11.10;99.90
8664;DHT22;4369;47.842;13.096;2023-04-24T08:08:27;11.20;99.90
8664;DHT22;4369;47.842;13.096;2023-04-24T08:10:54;11.30;99.90
8664;DHT22;4369;47.842;13.096;2023-04-24T08:13:22;11.20;99.90
8664;DHT22;4369;47.842;13.096;2023-04-24T08:15:50;11.20;99.90
8664;DHT22;4369;47.842;13.096;2023-04-24T08:18:17;11.10;99.90
8664;DHT22;4369;47.842;13.096;2023-04-24T08:20:44;11.30;99.90
8664;DHT22;4369;47.842;13.096;2023-04-24T08:23:11;11.40;99.90
8664;DHT22;4369;47.842;13.096;2023-04-24T08:25:38;11.40;99.90
8664;DHT22;4369;47.842;13.096;2023-04-24T08:28:06;11.40;99.90
8664;DHT22;4369;47.842;13.096;2023-04-24T08:30:35;11.50;99.90
8664;DHT22;4369;47.842;13.096;2023-04-24T08:33:03;11.60;99.90
8664;DHT22;4369;47.842;13.096;2023-04-24T08:35:30;11.70;99.90
8664;DHT22;4369;47.842;13.096;2023-04-24T08:37:56;11.60;99.90
8664;DHT22;4369;47.842;13.096;2023-04-24T08:40:29;11.50;99.90
8664;DHT22;4369;47.842;13.096;2023-04-24T08:42:56;11.60;99.90
8664;DHT22;4369;47.842;13.096;2023-04-24T08:45:23;11.60;99.90
8664;DHT22;4369;47.842;13.096;2023-04-24T08:47:52;11.60;99.90
8664;DHT22;4369;47.842;13.096;2023-04-24T08:50:22;11.50;99.90
8664;DHT22;4369;47.842;13.096;2023-04-24T08:52:50;11.60;99.90
8664;DHT22;4369;47.842;13.096;2023-04-24T08:55:18;11.60;99.90
8664;DHT22;4369;47.842;13.096;2023-04-24T08:57:48;11.60;99.90
8664;DHT22;4369;47.842;13.096;2023-04-24T09:00:17;11.60;99.90
8664;DHT22;4369;47.842;13.096;2023-04-24T09:02:45;11.70;99.90
8664;DHT22;4369;47.842;13.096;2023-04-24T09:05:14;11.80;99.90
8664;DHT22;4369;47.842;13.096;2023-04-24T09:07:45;11.70;99.90
8664;DHT22;4369;47.842;13.096;2023-04-24T09:10:15;11.70;99.90
8664;DHT22;4369;47.842;13.096;2023-04-24T09:12:43;11.80;99.90
8664;DHT22;4369;47.842;13.096;2023-04-24T09:15:11;11.80;99.90
8664;DHT22;4369;47.842;13.096;2023-04-24T09:17:38;11.70;99.90
8664;DHT22;4369;47.842;13.096;2023-04-24T09:20:06;11.90;99.90
8664;DHT22;4369;47.842;13.096;2023-04-24T09:22:34;11.90;99.90
8664;DHT22;4369;47.842;13.096;2023-04-24T09:25:04;12.00;99.90
8664;DHT22;4369;47.842;13.096;2023-04-24T09:27:32;11.90;99.90
8664;DHT22;4369;47.842;13.096;2023-04-24T09:29:59;11.60;99.90
8664;DHT22;4369;47.842;13.096;2023-04-24T09:32:27;11.60;99.90
8664;DHT22;4369;47.842;13.096;2023-04-24T09:35:10;11.40;99.90
8664;DHT22;4369;47.842;13.096;2023-04-24T09:37:38;11.40;99.90
8664;DHT22;4369;47.842;13.096;2023-04-24T09:40:15;11.40;99.90
8664;DHT22;4369;47.842;13.096;2023-04-24T09:42:51;11.40;99.90
8664;DHT22;4369;47.842;13.096;2023-04-24T09:45:18;11.50;99.90
8664;DHT22;4369;47.842;13.096;2023-04-24T09:47:46;11.50;99.90
8664;DHT22;4369;47.842;13.096;2023-04-24T09:50:17;11.40;99.90
8664;DHT22;4369;47.842;13.096;2023-04-24T09:52:46;11.50;99.90
8664;DHT22;4369;47.842;13.096;2023-04-24T09:55:18;11.60;99.90
8664;DHT22;4369;47.842;13.096;2023-04-24T09:57:49;11.70;99.90
8664;DHT22;4369;47.842;13.096;2023-04-24T10:00:22;11.80;99.90
8664;DHT22;4369;47.842;13.096;2023-04-24T10:02:58;11.70;99.90
8664;DHT22;4369;47.842;13.096;2023-04-24T10:05:28;11.60;99.90
8664;DHT22;4369;47.842;13.096;2023-04-24T10:07:57;11.50;99.90
8664;DHT22;4369;47.842;13.096;2023-04-24T10:10:26;11.60;99.90
8664;DHT22;4369;47.842;13.096;2023-04-24T10:12:53;11.60;99.90
8664;DHT22;4369;47.842;13.096;2023-04-24T10:15:21;11.60;99.90
8664;DHT22;4369;47.842;13.096;2023-04-24T10:17:49;11.50;99.90
8664;DHT22;4369;47.842;13.096;2023-04-24T10:20:19;11.40;99.90
8664;DHT22;4369;47.842;13.096;2023-04-24T10:22:48;11.30;99.90
8664;DHT22;4369;47.842;13.096;2023-04-24T10:25:18;11.20;99.90
8664;DHT22;4369;47.842;13.096;2023-04-24T10:27:47;11.30;99.90
8664;DHT22;4369;47.842;13.096;2023-04-24T10:30:15;11.20;99.90
8664;DHT22;4369;47.842;13.096;2023-04-24T10:32:42;11.30;99.90
8664;DHT22;4369;47.842;13.096;2023-04-24T10:35:10;11.40;99.90
8664;DHT22;4369;47.842;13.096;2023-04-24T10:37:41;11.50;99.90
8664;DHT22;4369;47.842;13.096;2023-04-24T10:40:09;11.40;99.90
8664;DHT22;4369;47.842;13.096;2023-04-24T10:42:40;11.40;99.90
8664;DHT22;4369;47.842;13.096;2023-04-24T10:45:17;11.60;99.90
8664;DHT22;4369;47.842;13.096;2023-04-24T10:48:01;11.50;99.90
8664;DHT22;4369;47.842;13.096;2023-04-24T10:50:29;11.50;99.90
8664;DHT22;4369;47.842;13.096;2023-04-24T10:53:06;11.50;99.90
8664;DHT22;4369;47.842;13.096;2023-04-24T10:55:44;11.40;99.90
8664;DHT22;4369;47.842;13.096;2023-04-24T10:58:11;11.40;99.90
8664;DHT22;4369;47.842;13.096;2023-04-24T11:00:40;11.30;99.90
8664;DHT22;4369;47.842;13.096;2023-04-24T11:03:23;11.30;99.90
8664;DHT22;4369;47.842;13.096;2023-04-24T11:05:53;11.30;99.90
8664;DHT22;4369;47.842;13.096;2023-04-24T11:08:29;11.30;99.90
8664;DHT22;4369;47.842;13.096;2023-04-24T11:11:10;11.20;99.90
8664;DHT22;4369;47.842;13.096;2023-04-24T11:14:05;11.30;99.90
8664;DHT22;4369;47.842;13.096;2023-04-24T11:16:37;11.50;99.90
8664;DHT22;4369;47.842;13.096;2023-04-24T11:19:07;11.50;99.90
8664;DHT22;4369;47.842;13.096;2023-04-24T11:21:42;11.40;99.90
8664;DHT22;4369;47.842;13.096;2023-04-24T11:24:39;11.50;99.90
8664;DHT22;4369;47.842;13.096;2023-04-24T11:27:12;11.60;99.90
8664;DHT22;4369;47.842;13.096;2023-04-24T11:29:45;12.10;99.90
8664;DHT22;4369;47.842;13.096;2023-04-24T11:32:28;12.70;99.90
8664;DHT22;4369;47.842;13.096;2023-04-24T11:34:56;13.30;99.90
8664;DHT22;4369;47.842;13.096;2023-04-24T11:37:25;13.90;99.90
8664;DHT22;4369;47.842;13.096;2023-04-24T11:39:53;13.90;99.90
8664;DHT22;4369;47.842;13.096;2023-04-24T11:42:22;14.00;99.90
8664;DHT22;4369;47.842;13.096;2023-04-24T11:44:49;13.90;99.90
8664;DHT22;4369;47.842;13.096;2023-04-24T11:47:16;13.70;99.90
8664;DHT22;4369;47.842;13.096;2023-04-24T11:49:44;13.50;99.90
8664;DHT22;4369;47.842;13.096;2023-04-24T11:52:15;13.50;99.90
8664;DHT22;4369;47.842;13.096;2023-04-24T11:54:47;13.40;99.90
8664;DHT22;4369;47.842;13.096;2023-04-24T11:57:14;13.30;99.90
8664;DHT22;4369;47.842;13.096;2023-04-24T11:59:41;13.20;99.90
8664;DHT22;4369;47.842;13.096;2023-04-24T12:02:08;13.30;99.90
8664;DHT22;4369;47.842;13.096;2023-04-24T12:04:39;13.70;99.90
8664;DHT22;4369;47.842;13.096;2023-04-24T12:07:08;13.90;99.90
8664;DHT22;4369;47.842;13.096;2023-04-24T12:09:42;14.10;99.90
8664;DHT22;4369;47.842;13.096;2023-04-24T12:12:09;14.20;99.90
8664;DHT22;4369;47.842;13.096;2023-04-24T12:14:47;14.20;99.90
8664;DHT22;4369;47.842;13.096;2023-04-24T12:17:14;14.20;99.90
8664;DHT22;4369;47.842;13.096;2023-04-24T12:19:46;14.20;99.90
8664;DHT22;4369;47.842;13.096;2023-04-24T12:22:14;14.10;99.90
8664;DHT22;4369;47.842;13.096;2023-04-24T12:24:58;13.90;99.90
8664;DHT22;4369;47.842;13.096;2023-04-24T12:27:28;13.50;99.90
8664;DHT22;4369;47.842;13.096;2023-04-24T12:29:56;13.40;99.90
8664;DHT22;4369;47.842;13.096;2023-04-24T12:32:23;13.30;99.90
8664;DHT22;4369;47.842;13.096;2023-04-24T12:34:51;13.30;99.90
8664;DHT22;4369;47.842;13.096;2023-04-24T12:37:20;13.50;99.90
8664;DHT22;4369;47.842;13.096;2023-04-24T12:40:01;13.60;99.90
8664;DHT22;4369;47.842;13.096;2023-04-24T12:42:29;13.60;99.90
8664;DHT22;4369;47.842;13.096;2023-04-24T12:44:57;13.70;99.90
8664;DHT22;4369;47.842;13.096;2023-04-24T12:47:25;13.80;99.90
8664;DHT22;4369;47.842;13.096;2023-04-24T12:49:52;13.70;99.90
8664;DHT22;4369;47.842;13.096;2023-04-24T12:52:22;13.80;99.90
8664;DHT22;4369;47.842;13.096;2023-04-24T12:54:49;13.90;99.90
8664;DHT22;4369;47.842;13.096;2023-04-24T12:57:17;13.70;99.90
8664;DHT22;4369;47.842;13.096;2023-04-24T12:59:44;13.50;99.90
8664;DHT22;4369;47.842;13.096;2023-04-24T13:02:11;13.50;99.90
8664;DHT22;4369;47.842;13.096;2023-04-24T13:04:38;13.30;99.90
8664;DHT22;4369;47.842;13.096;2023-04-24T13:07:05;13.20;99.90
8664;DHT22;4369;47.842;13.096;2023-04-24T13:09:34;13.20;99.90
8664;DHT22;4369;47.842;13.096;2023-04-24T13:12:01;13.10;99.90
8664;DHT22;4369;47.842;13.096;2023-04-24T13:14:28;13.10;99.90
8664;DHT22;4369;47.842;13.096;2023-04-24T13:16:55;13.00;99.90
8664;DHT22;4369;47.842;13.096;2023-04-24T13:19:24;13.10;99.90
8664;DHT22;4369;47.842;13.096;2023-04-24T13:21:51;13.10;99.90
8664;DHT22;4369;47.842;13.096;2023-04-24T13:24:19;13.10;99.90
8664;DHT22;4369;47.842;13.096;2023-04-24T13:26:47;13.10;99.90
8664;DHT22;4369;47.842;13.096;2023-04-24T13:29:14;13.00;99.90
8664;DHT22;4369;47.842;13.096;2023-04-24T13:31:41;12.90;99.90
8664;DHT22;4369;47.842;13.096;2023-04-24T13:34:08;12.70;99.90
8664;DHT22;4369;47.842;13.096;2023-04-24T13:36:34;12.40;99.90
8664;DHT22;4369;47.842;13.096;2023-04-24T13:39:01;12.30;99.90
8664;DHT22;4369;47.842;13.096;2023-04-24T13:41:29;11.90;99.90
8664;DHT22;4369;47.842;13.096;2023-04-24T13:43:58;11.80;99.90
8664;DHT22;4369;47.842;13.096;2023-04-24T13:46:25;11.70;99.90
8664;DHT22;4369;47.842;13.096;2023-04-24T13:48:51;11.60;99.90
8664;DHT22;4369;47.842;13.096;2023-04-24T13:51:19;11.40;99.90
8664;DHT22;4369;47.842;13.096;2023-04-24T13:53:45;11.30;99.90
8664;DHT22;4369;47.842;13.096;2023-04-24T13:56:12;11.20;99.90
8664;DHT22;4369;47.842;13.096;2023-04-24T13:58:39;11.20;99.90
8664;DHT22;4369;47.842;13.096;2023-04-24T14:01:08;11.10;99.90
8664;DHT22;4369;47.842;13.096;2023-04-24T14:03:37;11.10;99.90
8664;DHT22;4369;47.842;13.096;2023-04-24T14:06:04;11.00;99.90
8664;DHT22;4369;47.842;13.096;2023-04-24T14:08:31;11.00;99.90
8664;DHT22;4369;47.842;13.096;2023-04-24T14:10:58;11.00;99.90
8664;DHT22;4369;47.842;13.096;2023-04-24T14:13:25;11.10;99.90
8664;DHT22;4369;47.842;13.096;2023-04-24T14:15:53;11.10;99.90
8664;DHT22;4369;47.842;13.096;2023-04-24T14:18:21;11.10;99.90
8664;DHT22;4369;47.842;13.096;2023-04-24T14:20:48;11.10;99.90
8664;DHT22;4369;47.842;13.096;2023-04-24T14:23:15;11.20;99.90
8664;DHT22;4369;47.842;13.096;2023-04-24T14:25:43;11.10;99.90
8664;DHT22;4369;47.842;13.096;2023-04-24T14:28:11;11.10;99.90
8664;DHT22;4369;47.842;13.096;2023-04-24T14:30:38;11.00;99.90
8664;DHT22;4369;47.842;13.096;2023-04-24T14:33:06;10.90;99.90
8664;DHT22;4369;47.842;13.096;2023-04-24T14:35:34;10.90;99.90
8664;DHT22;4369;47.842;13.096;2023-04-24T14:38:01;10.80;99.90
8664;DHT22;4369;47.842;13.096;2023-04-24T14:40:28;10.90;99.90
8664;DHT22;4369;47.842;13.096;2023-04-24T14:42:55;10.90;99.90
8664;DHT22;4369;47.842;13.096;2023-04-24T14:45:23;10.90;99.90
8664;DHT22;4369;47.842;13.096;2023-04-24T14:47:50;10.70;99.90
8664;DHT22;4369;47.842;13.096;2023-04-24T14:50:17;10.70;99.90
8664;DHT22;4369;47.842;13.096;2023-04-24T14:52:46;10.60;99.90
8664;DHT22;4369;47.842;13.096;2023-04-24T14:55:13;10.50;99.90
8664;DHT22;4369;47.842;13.096;2023-04-24T14:57:40;10.40;99.90
8664;DHT22;4369;47.842;13.096;2023-04-24T15:00:08;10.40;99.90
8664;DHT22;4369;47.842;13.096;2023-04-24T15:02:35;10.40;99.90
8664;DHT22;4369;47.842;13.096;2023-04-24T15:05:06;10.40;99.90
8664;DHT22;4369;47.842;13.096;2023-04-24T15:07:33;10.40;99.90
8664;DHT22;4369;47.842;13.096;2023-04-24T15:10:02;10.20;99.90
8664;DHT22;4369;47.842;13.096;2023-04-24T15:12:29;10.20;99.90
8664;DHT22;4369;47.842;13.096;2023-04-24T15:14:57;10.10;99.90
8664;DHT22;4369;47.842;13.096;2023-04-24T15:17:24;10.10;99.90
8664;DHT22;4369;47.842;13.096;2023-04-24T15:19:51;10.10;99.90
8664;DHT22;4369;47.842;13.096;2023-04-24T15:22:18;10.10;99.90
8664;DHT22;4369;47.842;13.096;2023-04-24T15:24:45;10.00;99.90
8664;DHT22;4369;47.842;13.096;2023-04-24T15:27:13;10.10;99.90
8664;DHT22;4369;47.842;13.096;2023-04-24T15:29:41;10.30;99.90
8664;DHT22;4369;47.842;13.096;2023-04-24T15:32:08;10.30;99.90
8664;DHT22;4369;47.842;13.096;2023-04-24T15:34:34;10.40;99.90
8664;DHT22;4369;47.842;13.096;2023-04-24T15:37:01;10.40;99.90
8664;DHT22;4369;47.842;13.096;2023-04-24T15:39:28;10.50;99.90
8664;DHT22;4369;47.842;13.096;2023-04-24T15:41:55;10.70;99.90
8664;DHT22;4369;47.842;13.096;2023-04-24T15:44:24;10.80;99.90
8664;DHT22;4369;47.842;13.096;2023-04-24T15:46:51;10.80;99.90
8664;DHT22;4369;47.842;13.096;2023-04-24T15:49:18;10.90;99.90
8664;DHT22;4369;47.842;13.096;2023-04-24T15:51:45;10.90;99.90
8664;DHT22;4369;47.842;13.096;2023-04-24T15:54:12;10.90;99.90